Tipton Airport Fort Meade(Odenton) US
ICAO: KFME
IATA: FME
Category: Medium
Scheduled Services: No

Elevation: 150 ft
TransAlt. 18000 ft.

Airport Communications:
POTOMAC APP DEP:119.7
AWOS 3:123.925
CTAF/UNICOM:123.05

KFME Zoom In..

If Map Doesn't Load, Click Here

Runways:

(A) RW 10 length 3000 ft width 75 ft
---- / hdg 104

(B) RW 28 length 3000 ft width 75 ft
---- / hdg 284

Location; KFME
Day. 21 / Time. 02.48 Zulu
* Altimeter: 30.25
* Temperature: 21° c. 69.8°f.
* Wind from: 130° Speed 08 kn.
Dewpoint: 18° c.
Visibility: 10 Statute Miles.
Clouds: Overcast 1800 ft.

KFME 210248Z AUTO 13008KT 10SM OVC018 21/18 A3025 RMK AO1


Wind From 130°
Speed 08 kn.

 
 
jpsmedia.com for Web Design worldairports.se 2018   terms of use